»·PEaware :: N612SR KPUW-KGEG

N612SR :: KPUW-KGEG

FLIGHT INFORMATION

Flight Status: Arrived
Operator: Privately registered:
United States
More flights under this callsign
Pilot: Rod T. (6553)
Aircraft: CIRRUS SR-22
(SR22)
More flights by this aircraft type
Origin: KPUW Pullman/Moscow Regl
United States
Destination: KGEG Spokane Intl
United States
More flights between these airports :: More routes between these airports
Route: +PUW V253 GEG
File this flight plan on PilotEdge
Remarks:
Altitude:
(Current/Filed)
6,000ft
Speed:
(Current/Filed)
180kts
Departed: 21-Mar-17 06:22 PM
Arrived: 21-Mar-17 06:57 PM
Distance/Time
Traveled:
55nm/0:35
Distance/Time
To Go:
Arrived

Flight Plot

Page will automatically refresh every two minutes.

Flight plan parsing failed; only flown route is shown


Map Options




Map Legend


Flown Route
Filed Route
Departure Airport
Arrival Airport
Navaid (VOR, NDB)
Fix

Horizontal Profiles

Position Reports

Time Latitude Longitude Heading Altitude Ground
Speed
21-Mar-17 18:07 46.745015 -117.109154 133 2558ft 0kts
21-Mar-17 18:08 46.745015 -117.109154 133 2558ft 0kts
21-Mar-17 18:09 46.745015 -117.109154 133 2558ft 0kts
21-Mar-17 18:10 46.745015 -117.109154 133 2558ft 0kts
21-Mar-17 18:11 46.745015 -117.109154 133 2558ft 0kts
21-Mar-17 18:12 46.745015 -117.109154 133 2558ft 0kts
21-Mar-17 18:13 46.745015 -117.109154 133 2558ft 0kts
21-Mar-17 18:14 46.745015 -117.109154 133 2558ft 0kts
21-Mar-17 18:15 46.745015 -117.109154 133 2558ft 0kts
21-Mar-17 18:16 46.745015 -117.109154 133 2558ft 0kts
21-Mar-17 18:17 46.745791 -117.104209 70 2558ft 20kts
21-Mar-17 18:18 46.747418 -117.097335 156 2558ft 0kts
21-Mar-17 18:19 46.747418 -117.097335 156 2558ft 0kts
21-Mar-17 18:20 46.747418 -117.097335 156 2558ft 0kts
21-Mar-17 18:21 46.747418 -117.097335 156 2558ft 0kts
21-Mar-17 18:22 46.747418 -117.097335 156 2558ft 0kts
21-Mar-17 18:23 46.744624 -117.106680 250 2681ft 91kts
21-Mar-17 18:24 46.725423 -117.122050 124 4057ft 117kts
21-Mar-17 18:25 46.740310 -117.111880 249 5207ft 135kts
21-Mar-17 18:26 46.716578 -117.156234 224 6081ft 152kts
21-Mar-17 18:27 46.686188 -117.204981 244 6073ft 169kts
21-Mar-17 18:28 46.718084 -117.242878 343 6075ft 178kts
21-Mar-17 18:29 46.765919 -117.263681 341 6074ft 179kts
21-Mar-17 18:30 46.813636 -117.284982 341 6074ft 180kts
21-Mar-17 18:31 46.861513 -117.306417 341 6074ft 180kts
21-Mar-17 18:32 46.909292 -117.327841 341 6074ft 180kts
21-Mar-17 18:33 46.957258 -117.349396 341 6074ft 180kts
21-Mar-17 18:34 47.005078 -117.370920 341 6074ft 180kts
21-Mar-17 18:35 47.053035 -117.392558 341 6074ft 180kts
21-Mar-17 18:36 47.100067 -117.413885 341 5997ft 186kts
21-Mar-17 18:37 47.146656 -117.435294 342 5992ft 187kts
21-Mar-17 18:38 47.196121 -117.457744 342 5992ft 187kts
21-Mar-17 18:39 47.245797 -117.480322 342 5992ft 187kts
21-Mar-17 18:40 47.295378 -117.502901 342 5992ft 187kts
21-Mar-17 18:41 47.345065 -117.525574 342 5974ft 187kts
21-Mar-17 18:42 47.394738 -117.548282 342 5974ft 187kts
21-Mar-17 18:43 47.444305 -117.570989 342 5974ft 187kts
21-Mar-17 18:44 47.491640 -117.569407 44 5977ft 184kts
21-Mar-17 18:45 47.529486 -117.518021 44 5974ft 185kts
21-Mar-17 18:46 47.567441 -117.466391 44 5974ft 185kts
21-Mar-17 18:47 47.605341 -117.414811 44 5974ft 185kts
21-Mar-17 18:48 47.642856 -117.363692 44 5975ft 183kts
21-Mar-17 18:49 47.679747 -117.313498 44 5974ft 178kts
21-Mar-17 18:50 47.708133 -117.263964 49 5970ft 144kts
21-Mar-17 18:51 47.729129 -117.292280 254 5977ft 148kts
21-Mar-17 18:52 47.718820 -117.350337 254 5877ft 149kts
21-Mar-17 18:53 47.707022 -117.404565 222 4805ft 114kts
21-Mar-17 18:54 47.684915 -117.437908 222 3933ft 101kts
21-Mar-17 18:55 47.667082 -117.464812 222 3413ft 94kts
21-Mar-17 18:56 47.647408 -117.494276 222 2870ft 103kts
21-Mar-17 18:57 47.630439 -117.519460 223 2393ft 73kts
21-Mar-17 18:58 47.622002 -117.532138 225 2387ft 34kts
21-Mar-17 18:59 47.620222 -117.531602 190 2387ft 15kts
21-Mar-17 19:00 47.620847 -117.528730 161 2387ft 12kts

Navigation Log

Ident Type
Flight plan parsing failed, navigation log unavailable